Time;durP1;ratioP1;P1;durP2;ratioP2;P2;SDS_P1;SDS_P2;PMS_P1;PMS_P2;Temp;Humidity;BMP_temperature;BMP_pressure;BME280_temperature;BME280_humidity;BME280_pressure;Samples;Min_cycle;Max_cycle;Signal;HPM_P1;HPM_P2
2023/11/19 00:00:47;;;;;;;11.82;6.50;;;;;;;;;;5041206;28;20108;-68
2023/11/19 00:03:13;;;;;;;13.60;7.47;;;;;;;;;;5037819;28;20079;-68
2023/11/19 00:05:38;;;;;;;14.63;7.55;;;;;;;;;;5046149;28;20087;-68
2023/11/19 00:08:05;;;;;;;11.05;6.25;;;;;;;;;;5051143;28;20477;-68
2023/11/19 00:10:31;;;;;;;16.50;6.32;;;;;;;;;;5051372;28;20401;-68
2023/11/19 00:12:56;;;;;;;11.70;5.60;;;;;;;;;;5052663;28;20017;-68
2023/11/19 00:15:24;;;;;;;12.25;5.75;;;;;;;;;;5049807;28;20028;-68
2023/11/19 00:17:49;;;;;;;13.90;7.00;;;;;;;;;;5051960;28;20490;-68
2023/11/19 00:20:16;;;;;;;11.93;7.05;;;;;;;;;;5048079;28;20024;-68
2023/11/19 00:22:42;;;;;;;11.68;5.90;;;;;;;;;;5052190;28;20029;-68
2023/11/19 00:25:08;;;;;;;15.55;7.30;;;;;;;;;;5043403;28;20075;-68
2023/11/19 00:27:33;;;;;;;9.88;6.07;;;;;;;;;;5057432;28;20028;-68
2023/11/19 00:29:59;;;;;;;10.05;6.38;;;;;;;;;;5057369;28;20027;-68
2023/11/19 00:32:24;;;;;;;11.60;5.97;;;;;;;;;;5054952;28;20029;-68
2023/11/19 00:34:49;;;;;;;12.40;6.93;;;;;;;;;;5056600;28;20024;-68
2023/11/19 00:37:15;;;;;;;13.88;6.03;;;;;;;;;;5054706;28;20428;-68
2023/11/19 00:39:40;;;;;;;9.85;6.07;;;;;;;;;;5056052;28;20025;-69
2023/11/19 00:42:06;;;;;;;15.68;7.30;;;;;;;;;;5056128;28;20028;-68
2023/11/19 00:44:31;;;;;;;12.20;6.70;;;;;;;;;;5055631;28;20031;-68
2023/11/19 00:46:56;;;;;;;10.77;6.78;;;;;;;;;;5055927;28;20067;-68
2023/11/19 00:49:22;;;;;;;9.25;5.68;;;;;;;;;;5039368;28;20021;-68
2023/11/19 00:51:47;;;;;;;12.02;6.65;;;;;;;;;;5035635;28;20032;-68
2023/11/19 00:54:12;;;;;;;12.60;6.78;;;;;;;;;;5035488;28;20025;-68
2023/11/19 00:56:37;;;;;;;9.85;6.30;;;;;;;;;;5035797;28;20032;-68
2023/11/19 00:59:03;;;;;;;10.43;6.70;;;;;;;;;;5035959;28;20047;-68
2023/11/19 01:01:29;;;;;;;10.75;5.57;;;;;;;;;;5035993;28;20398;-68
2023/11/19 01:03:55;;;;;;;11.93;7.28;;;;;;;;;;5035406;28;20029;-68
2023/11/19 01:06:27;;;;;;;10.80;7.22;;;;;;;;;;5035988;28;20017;-68
2023/11/19 01:08:53;;;;;;;9.85;5.85;;;;;;;;;;5035775;28;20025;-68
2023/11/19 01:11:21;;;;;;;10.98;6.80;;;;;;;;;;5035716;28;20040;-68
2023/11/19 01:13:47;;;;;;;11.18;6.10;;;;;;;;;;5036022;28;20067;-69
2023/11/19 01:16:13;;;;;;;11.82;6.68;;;;;;;;;;5035083;28;20104;-68
2023/11/19 01:18:38;;;;;;;12.75;6.20;;;;;;;;;;5035772;28;20032;-68
2023/11/19 01:21:04;;;;;;;9.60;5.47;;;;;;;;;;5034226;28;20021;-68
2023/11/19 01:23:29;;;;;;;8.07;4.97;;;;;;;;;;5035502;28;20025;-68
2023/11/19 01:25:55;;;;;;;7.55;5.03;;;;;;;;;;5035302;28;20030;-68
2023/11/19 01:28:20;;;;;;;10.57;6.18;;;;;;;;;;5034657;28;20060;-68
2023/11/19 01:30:45;;;;;;;11.27;5.38;;;;;;;;;;5035279;28;20064;-68
2023/11/19 01:33:10;;;;;;;10.40;4.60;;;;;;;;;;5035726;28;20043;-68
2023/11/19 01:35:36;;;;;;;10.07;5.03;;;;;;;;;;5035119;28;20026;-68
2023/11/19 01:38:01;;;;;;;9.98;5.97;;;;;;;;;;5034680;28;20022;-68
2023/11/19 01:40:26;;;;;;;8.27;5.13;;;;;;;;;;5034666;28;20595;-68
2023/11/19 01:42:52;;;;;;;10.95;5.07;;;;;;;;;;5035151;28;20021;-68
2023/11/19 01:45:22;;;;;;;5.75;3.60;;;;;;;;;;5035034;28;20398;-68
2023/11/19 01:47:47;;;;;;;7.43;4.53;;;;;;;;;;5043392;28;20100;-68
2023/11/19 01:50:14;;;;;;;9.82;5.43;;;;;;;;;;5050129;28;20049;-69
2023/11/19 01:52:39;;;;;;;9.73;5.65;;;;;;;;;;5050417;28;20025;-68
2023/11/19 01:55:05;;;;;;;11.02;5.82;;;;;;;;;;5034780;28;20071;-68
2023/11/19 01:57:30;;;;;;;8.75;5.20;;;;;;;;;;5034821;28;20104;-68
2023/11/19 01:59:55;;;;;;;10.63;5.25;;;;;;;;;;5033894;28;20044;-68
2023/11/19 02:02:21;;;;;;;9.75;5.07;;;;;;;;;;5038643;28;20492;-68
2023/11/19 02:04:49;;;;;;;9.95;6.03;;;;;;;;;;5053278;28;20049;-68
2023/11/19 02:07:14;;;;;;;9.10;5.70;;;;;;;;;;5054357;28;20052;-68
2023/11/19 02:09:43;;;;;;;12.20;5.18;;;;;;;;;;5053747;28;20160;-68
2023/11/19 02:12:09;;;;;;;6.90;4.00;;;;;;;;;;5052782;28;20394;-68
2023/11/19 02:14:34;;;;;;;11.05;5.28;;;;;;;;;;5046055;28;20104;-68
2023/11/19 02:16:59;;;;;;;9.55;5.63;;;;;;;;;;5053951;28;20124;-68
2023/11/19 02:19:25;;;;;;;7.75;4.43;;;;;;;;;;5054124;28;20445;-68
2023/11/19 02:21:50;;;;;;;7.85;5.07;;;;;;;;;;5052846;28;20040;-68
2023/11/19 02:24:16;;;;;;;7.72;4.47;;;;;;;;;;5054198;28;20044;-68
2023/11/19 02:26:48;;;;;;;7.93;5.22;;;;;;;;;;5052473;28;20555;-68
2023/11/19 02:29:13;;;;;;;10.52;5.65;;;;;;;;;;5034308;28;20033;-68
2023/11/19 02:31:38;;;;;;;7.50;4.82;;;;;;;;;;5034006;28;20033;-68
2023/11/19 02:34:05;;;;;;;7.63;5.03;;;;;;;;;;5034051;28;20036;-68
2023/11/19 02:36:31;;;;;;;8.00;4.43;;;;;;;;;;5033824;28;20029;-68
2023/11/19 02:38:57;;;;;;;9.05;3.80;;;;;;;;;;5033985;28;20398;-68
2023/11/19 02:41:22;;;;;;;7.43;4.47;;;;;;;;;;5033242;28;20041;-68
2023/11/19 02:43:48;;;;;;;5.55;3.47;;;;;;;;;;5034127;28;20021;-68
2023/11/19 02:46:14;;;;;;;6.38;4.05;;;;;;;;;;5033678;28;20022;-68
2023/11/19 02:48:39;;;;;;;7.47;4.00;;;;;;;;;;5032930;28;20030;-68
2023/11/19 02:51:04;;;;;;;7.85;4.80;;;;;;;;;;5033451;28;20100;-68
2023/11/19 02:53:30;;;;;;;6.90;4.28;;;;;;;;;;5033933;28;20326;-68
2023/11/19 02:56:25;;;;;;;8.35;4.80;;;;;;;;;;5032647;28;20036;-68
2023/11/19 02:58:51;;;;;;;6.50;4.00;;;;;;;;;;5033443;28;20035;-68
2023/11/19 03:01:33;;;;;;;6.60;4.05;;;;;;;;;;5032150;28;20025;-68
2023/11/19 03:04:01;;;;;;;4.88;3.60;;;;;;;;;;5033881;28;20025;-68
2023/11/19 03:06:27;;;;;;;6.55;3.70;;;;;;;;;;5033775;28;20104;-68
2023/11/19 03:08:52;;;;;;;6.43;3.90;;;;;;;;;;5033837;28;20080;-68
2023/11/19 03:11:18;;;;;;;5.55;3.67;;;;;;;;;;5034049;28;20049;-68
2023/11/19 03:13:43;;;;;;;6.53;4.13;;;;;;;;;;5033656;28;20508;-68
2023/11/19 03:16:08;;;;;;;5.43;3.55;;;;;;;;;;5032984;28;20573;-68
2023/11/19 03:18:34;;;;;;;6.72;4.13;;;;;;;;;;5032362;28;20036;-68
2023/11/19 03:21:00;;;;;;;4.00;3.33;;;;;;;;;;5033567;28;20033;-69
2023/11/19 03:23:27;;;;;;;5.97;4.15;;;;;;;;;;5034026;28;20033;-68
2023/11/19 03:25:53;;;;;;;6.95;3.45;;;;;;;;;;5033426;28;20040;-68
2023/11/19 03:28:18;;;;;;;4.38;3.42;;;;;;;;;;5031621;28;20033;-68
2023/11/19 03:30:43;;;;;;;5.07;3.72;;;;;;;;;;5034232;28;20025;-69
2023/11/19 03:33:08;;;;;;;4.45;2.75;;;;;;;;;;5033619;28;20409;-68
2023/11/19 03:35:34;;;;;;;4.63;3.42;;;;;;;;;;5033107;28;20065;-68
2023/11/19 03:37:59;;;;;;;4.38;2.63;;;;;;;;;;5031784;28;20025;-68
2023/11/19 03:40:25;;;;;;;4.28;3.10;;;;;;;;;;5033860;28;20105;-68
2023/11/19 03:42:50;;;;;;;3.20;2.78;;;;;;;;;;5033720;28;20022;-69
2023/11/19 03:45:15;;;;;;;3.40;2.35;;;;;;;;;;5033460;28;20398;-68
2023/11/19 03:47:41;;;;;;;4.55;3.17;;;;;;;;;;5033156;28;20478;-68
2023/11/19 03:50:08;;;;;;;2.92;1.88;;;;;;;;;;5032211;28;20381;-68
2023/11/19 03:52:33;;;;;;;5.15;2.53;;;;;;;;;;5032904;28;20489;-68
2023/11/19 03:54:58;;;;;;;3.38;2.75;;;;;;;;;;5033453;28;20104;-68
2023/11/19 03:57:24;;;;;;;5.28;2.92;;;;;;;;;;5033348;28;20021;-68
2023/11/19 03:59:49;;;;;;;4.35;2.65;;;;;;;;;;5033134;28;20052;-68
2023/11/19 04:02:15;;;;;;;3.83;2.80;;;;;;;;;;5037374;28;20105;-68
2023/11/19 04:04:40;;;;;;;4.00;3.55;;;;;;;;;;5019422;28;20025;-68
2023/11/19 04:07:06;;;;;;;4.28;3.00;;;;;;;;;;5037479;28;20079;-68
2023/11/19 04:09:34;;;;;;;4.65;3.03;;;;;;;;;;5037768;28;20071;-68
2023/11/19 04:12:00;;;;;;;4.15;3.17;;;;;;;;;;5037243;28;20067;-69
2023/11/19 04:14:26;;;;;;;3.55;2.95;;;;;;;;;;5037733;28;20022;-68
2023/11/19 04:16:51;;;;;;;2.95;2.60;;;;;;;;;;5036257;28;20040;-68
2023/11/19 04:19:17;;;;;;;3.33;2.03;;;;;;;;;;5037700;28;20374;-69
2023/11/19 04:21:43;;;;;;;3.15;2.63;;;;;;;;;;5035815;28;20500;-68
2023/11/19 04:24:12;;;;;;;4.60;3.60;;;;;;;;;;5037851;28;20029;-68
2023/11/19 04:26:45;;;;;;;3.65;2.85;;;;;;;;;;5039004;28;20090;-68
2023/11/19 04:29:15;;;;;;;3.00;2.70;;;;;;;;;;5054461;28;20129;-68
2023/11/19 04:31:41;;;;;;;4.40;2.97;;;;;;;;;;5039785;28;20028;-69
2023/11/19 04:34:06;;;;;;;2.75;2.10;;;;;;;;;;5052578;28;20481;-68
2023/11/19 04:36:32;;;;;;;5.13;3.35;;;;;;;;;;5044479;28;20029;-69
2023/11/19 04:38:59;;;;;;;3.38;2.90;;;;;;;;;;5036482;28;20029;-69
2023/11/19 04:41:24;;;;;;;5.97;3.10;;;;;;;;;;5035301;28;20029;-68
2023/11/19 04:43:49;;;;;;;6.28;3.10;;;;;;;;;;5037171;28;20052;-69
2023/11/19 04:46:15;;;;;;;3.60;3.30;;;;;;;;;;5035615;28;20096;-69
2023/11/19 04:48:40;;;;;;;2.78;2.03;;;;;;;;;;5036181;28;20394;-68
2023/11/19 04:51:07;;;;;;;4.40;3.33;;;;;;;;;;5036669;28;20109;-69
2023/11/19 04:53:32;;;;;;;4.90;2.95;;;;;;;;;;5034685;28;20021;-68
2023/11/19 04:55:59;;;;;;;3.55;3.22;;;;;;;;;;5036396;28;20030;-68
2023/11/19 04:58:24;;;;;;;3.50;3.15;;;;;;;;;;5038260;28;20031;-68
2023/11/19 05:00:49;;;;;;;3.53;3.13;;;;;;;;;;5056028;28;20104;-69
2023/11/19 05:03:14;;;;;;;5.53;2.45;;;;;;;;;;5055937;28;20398;-69
2023/11/19 05:05:40;;;;;;;5.47;2.72;;;;;;;;;;5054524;28;20063;-69
2023/11/19 05:08:05;;;;;;;5.20;3.83;;;;;;;;;;5056162;28;20045;-69
2023/11/19 05:10:30;;;;;;;3.22;2.92;;;;;;;;;;5054761;28;20056;-69
2023/11/19 05:12:56;;;;;;;3.42;3.05;;;;;;;;;;5054347;28;20029;-68
2023/11/19 05:15:22;;;;;;;3.88;2.70;;;;;;;;;;5035930;28;20021;-68
2023/11/19 05:17:47;;;;;;;4.60;2.80;;;;;;;;;;5035471;28;20071;-69
2023/11/19 05:20:13;;;;;;;3.63;2.25;;;;;;;;;;5036032;28;20025;-69
2023/11/19 05:22:41;;;;;;;3.05;2.75;;;;;;;;;;5035658;28;20025;-69
2023/11/19 05:25:07;;;;;;;4.75;3.22;;;;;;;;;;5034340;28;20118;-68
2023/11/19 05:27:32;;;;;;;3.15;2.60;;;;;;;;;;5035143;28;20073;-69
2023/11/19 05:29:57;;;;;;;4.38;2.88;;;;;;;;;;5035439;28;20029;-69
2023/11/19 05:32:23;;;;;;;4.70;2.90;;;;;;;;;;5035369;28;20028;-69
2023/11/19 05:34:48;;;;;;;5.78;2.42;;;;;;;;;;5034696;28;20477;-68
2023/11/19 05:37:14;;;;;;;3.22;2.70;;;;;;;;;;5035435;28;20079;-69
2023/11/19 05:39:39;;;;;;;4.05;2.88;;;;;;;;;;5035204;28;20021;-68
2023/11/19 05:42:04;;;;;;;4.70;3.20;;;;;;;;;;5035544;28;20028;-68
2023/11/19 05:44:30;;;;;;;3.05;2.75;;;;;;;;;;5033890;28;20033;-69
2023/11/19 05:46:55;;;;;;;7.47;3.25;;;;;;;;;;5035247;28;20021;-69
2023/11/19 05:49:20;;;;;;;4.20;3.05;;;;;;;;;;5034756;28;20025;-68
2023/11/19 05:51:46;;;;;;;4.65;3.80;;;;;;;;;;5035191;28;20029;-69
2023/11/19 05:54:13;;;;;;;6.65;3.78;;;;;;;;;;5035169;28;20021;-69
2023/11/19 05:56:38;;;;;;;8.27;4.13;;;;;;;;;;5034682;28;20021;-69
2023/11/19 05:59:07;;;;;;;6.10;3.00;;;;;;;;;;5035341;28;20374;-69
2023/11/19 06:01:36;;;;;;;7.25;3.75;;;;;;;;;;5034837;28;20022;-68
2023/11/19 06:04:01;;;;;;;5.88;4.22;;;;;;;;;;5034889;28;20482;-69
2023/11/19 06:06:28;;;;;;;7.15;3.72;;;;;;;;;;5033815;28;20048;-69
2023/11/19 06:08:54;;;;;;;7.97;4.60;;;;;;;;;;5033664;28;20034;-69
2023/11/19 06:11:20;;;;;;;8.43;5.28;;;;;;;;;;5034577;28;20029;-69
2023/11/19 06:13:46;;;;;;;5.30;3.67;;;;;;;;;;5034691;28;20021;-69
2023/11/19 06:16:12;;;;;;;10.95;4.18;;;;;;;;;;5034389;28;20022;-69
2023/11/19 06:18:37;;;;;;;8.05;4.07;;;;;;;;;;5034116;28;20497;-69
2023/11/19 06:21:02;;;;;;;9.20;4.25;;;;;;;;;;5034606;28;20494;-69
2023/11/19 06:23:28;;;;;;;11.60;4.63;;;;;;;;;;5033644;28;20025;-69
2023/11/19 06:25:53;;;;;;;12.50;5.50;;;;;;;;;;5034587;28;20033;-69
2023/11/19 06:28:19;;;;;;;10.48;3.97;;;;;;;;;;5034252;28;20423;-69
2023/11/19 06:30:44;;;;;;;11.85;5.28;;;;;;;;;;5033316;28;20021;-69
2023/11/19 06:33:12;;;;;;;10.43;4.65;;;;;;;;;;5033686;28;20429;-69
2023/11/19 06:35:38;;;;;;;14.10;5.82;;;;;;;;;;5042386;28;20045;-69
2023/11/19 06:38:04;;;;;;;10.32;5.78;;;;;;;;;;5054252;28;20552;-69
2023/11/19 06:40:30;;;;;;;15.55;5.65;;;;;;;;;;5053539;28;20048;-68
2023/11/19 06:42:56;;;;;;;14.30;6.10;;;;;;;;;;5046161;28;20481;-69
2023/11/19 06:45:21;;;;;;;17.40;6.15;;;;;;;;;;5053908;28;20025;-69
2023/11/19 06:47:46;;;;;;;15.95;5.78;;;;;;;;;;5054175;28;20028;-69
2023/11/19 06:50:12;;;;;;;16.83;6.82;;;;;;;;;;5054124;28;20060;-69
2023/11/19 06:52:37;;;;;;;22.88;6.82;;;;;;;;;;5054269;28;20021;-68
2023/11/19 06:55:03;;;;;;;12.88;5.25;;;;;;;;;;5053408;28;20183;-69
2023/11/19 06:57:29;;;;;;;18.52;7.00;;;;;;;;;;5053844;28;20033;-69
2023/11/19 06:59:54;;;;;;;18.58;5.80;;;;;;;;;;5052830;28;20090;-69
2023/11/19 07:02:20;;;;;;;17.33;5.60;;;;;;;;;;5054389;28;20373;-69
2023/11/19 07:04:45;;;;;;;19.33;6.35;;;;;;;;;;5053811;28;20021;-69
2023/11/19 07:07:10;;;;;;;17.92;7.10;;;;;;;;;;5054041;28;20036;-69
2023/11/19 07:09:37;;;;;;;11.23;5.30;;;;;;;;;;5053446;28;20029;-69
2023/11/19 07:12:04;;;;;;;13.30;4.40;;;;;;;;;;5053738;28;20056;-69
2023/11/19 07:14:30;;;;;;;10.95;5.15;;;;;;;;;;5053647;28;20028;-69
2023/11/19 07:16:55;;;;;;;11.90;5.20;;;;;;;;;;5033793;28;20021;-69
2023/11/19 07:19:21;;;;;;;11.27;5.00;;;;;;;;;;5033713;28;20048;-69
2023/11/19 07:21:46;;;;;;;13.45;4.88;;;;;;;;;;5033659;28;20437;-69
2023/11/19 07:24:14;;;;;;;10.70;5.03;;;;;;;;;;5033254;28;20105;-69
2023/11/19 07:26:47;;;;;;;10.25;4.75;;;;;;;;;;5033278;28;20544;-69
2023/11/19 07:29:12;;;;;;;12.00;5.80;;;;;;;;;;5032525;28;20479;-69
2023/11/19 07:31:38;;;;;;;36.60;7.13;;;;;;;;;;5032094;28;20113;-69
2023/11/19 07:34:05;;;;;;;25.90;7.07;;;;;;;;;;5031782;28;20037;-69
2023/11/19 07:36:30;;;;;;;34.75;6.43;;;;;;;;;;5035436;28;20032;-69
2023/11/19 07:38:57;;;;;;;43.53;7.97;;;;;;;;;;5037490;28;20022;-69
2023/11/19 07:41:22;;;;;;;44.00;5.68;;;;;;;;;;5036518;28;20025;-69
2023/11/19 07:43:49;;;;;;;35.50;8.85;;;;;;;;;;5037572;28;20120;-68
2023/11/19 07:46:14;;;;;;;48.45;7.72;;;;;;;;;;5037139;28;20047;-69
2023/11/19 07:48:40;;;;;;;35.00;7.05;;;;;;;;;;5036918;28;20021;-69
2023/11/19 07:51:06;;;;;;;62.05;10.57;;;;;;;;;;5037488;28;20478;-69
2023/11/19 07:53:32;;;;;;;42.70;6.45;;;;;;;;;;5036158;28;20032;-69
2023/11/19 07:55:59;;;;;;;50.08;10.85;;;;;;;;;;5036966;28;20017;-68
2023/11/19 07:58:25;;;;;;;51.63;8.70;;;;;;;;;;5037126;28;20055;-69
2023/11/19 08:00:50;;;;;;;34.03;7.43;;;;;;;;;;5037477;28;20470;-68
2023/11/19 08:03:15;;;;;;;51.47;6.07;;;;;;;;;;5037483;28;20044;-69
2023/11/19 08:05:40;;;;;;;41.45;7.57;;;;;;;;;;5037545;28;20036;-69
2023/11/19 08:08:06;;;;;;;55.72;8.35;;;;;;;;;;5037763;28;20036;-69
2023/11/19 08:10:33;;;;;;;54.70;10.02;;;;;;;;;;5036510;28;20024;-69
2023/11/19 08:12:58;;;;;;;55.00;9.55;;;;;;;;;;5037331;28;20029;-68
2023/11/19 08:15:23;;;;;;;40.03;8.00;;;;;;;;;;5053506;28;20072;-68
2023/11/19 08:17:49;;;;;;;49.63;9.10;;;;;;;;;;5056798;28;20024;-69
2023/11/19 08:20:14;;;;;;;60.55;8.75;;;;;;;;;;5056730;28;20025;-69
2023/11/19 08:22:40;;;;;;;41.20;6.65;;;;;;;;;;5057319;28;20028;-69
2023/11/19 08:25:06;;;;;;;50.15;9.02;;;;;;;;;;5055941;28;20036;-68
2023/11/19 08:27:31;;;;;;;49.50;7.68;;;;;;;;;;5056931;28;20021;-69
2023/11/19 08:29:56;;;;;;;46.92;7.80;;;;;;;;;;5038597;28;20482;-69
2023/11/19 08:32:28;;;;;;;62.35;9.27;;;;;;;;;;5035285;28;20025;-69
2023/11/19 08:34:54;;;;;;;38.55;6.90;;;;;;;;;;5036357;28;20441;-69
2023/11/19 08:37:20;;;;;;;41.65;8.45;;;;;;;;;;5036042;28;20024;-69
2023/11/19 08:39:46;;;;;;;49.42;8.05;;;;;;;;;;5036862;28;20478;-69
2023/11/19 08:42:12;;;;;;;56.20;6.97;;;;;;;;;;5036355;28;20025;-69
2023/11/19 08:44:37;;;;;;;58.40;11.13;;;;;;;;;;5036216;28;20064;-69
2023/11/19 08:47:04;;;;;;;40.60;8.45;;;;;;;;;;5036224;28;20187;-69
2023/11/19 08:49:29;;;;;;;41.25;6.90;;;;;;;;;;5035633;28;20474;-69
2023/11/19 08:51:54;;;;;;;34.90;6.60;;;;;;;;;;5036317;28;20040;-68
2023/11/19 08:54:21;;;;;;;45.67;7.75;;;;;;;;;;5035934;28;20083;-68
2023/11/19 08:56:46;;;;;;;42.35;7.43;;;;;;;;;;5036060;28;20026;-69
2023/11/19 08:59:12;;;;;;;40.03;7.00;;;;;;;;;;5036088;28;20471;-69
2023/11/19 09:01:37;;;;;;;48.22;7.18;;;;;;;;;;5036143;28;20112;-69
2023/11/19 09:04:02;;;;;;;43.00;6.57;;;;;;;;;;5035659;28;20478;-69
2023/11/19 09:06:27;;;;;;;33.97;6.63;;;;;;;;;;5035984;28;20022;-69
2023/11/19 09:08:53;;;;;;;39.95;6.95;;;;;;;;;;5036203;28;20430;-69
2023/11/19 09:11:18;;;;;;;39.95;6.90;;;;;;;;;;5036017;28;20021;-69
2023/11/19 09:13:45;;;;;;;48.80;8.80;;;;;;;;;;5036088;28;20371;-71
2023/11/19 09:16:11;;;;;;;38.67;6.97;;;;;;;;;;5035318;28;20022;-70
2023/11/19 09:18:37;;;;;;;45.03;8.45;;;;;;;;;;5034766;28;20025;-69
2023/11/19 09:21:02;;;;;;;53.70;7.85;;;;;;;;;;5034078;28;20033;-69
2023/11/19 09:23:30;;;;;;;34.95;5.90;;;;;;;;;;5035884;28;20513;-69
2023/11/19 09:25:55;;;;;;;56.78;7.72;;;;;;;;;;5034014;28;20025;-69
2023/11/19 09:28:21;;;;;;;43.35;7.88;;;;;;;;;;5034948;28;20025;-69
2023/11/19 09:30:46;;;;;;;45.15;7.13;;;;;;;;;;5035555;28;20025;-69
2023/11/19 09:33:12;;;;;;;40.92;7.15;;;;;;;;;;5035265;28;20159;-68
2023/11/19 09:35:37;;;;;;;45.75;7.32;;;;;;;;;;5035073;28;20029;-69
2023/11/19 09:38:02;;;;;;;43.67;7.72;;;;;;;;;;5033980;28;20115;-69
2023/11/19 09:40:28;;;;;;;38.50;7.55;;;;;;;;;;5034054;28;20025;-69
2023/11/19 09:42:53;;;;;;;49.92;7.88;;;;;;;;;;5034926;28;20394;-69
2023/11/19 09:45:21;;;;;;;41.47;6.32;;;;;;;;;;5035426;28;20021;-69
2023/11/19 09:47:47;;;;;;;35.13;6.68;;;;;;;;;;5035482;28;20025;-69
2023/11/19 09:50:17;;;;;;;49.15;7.57;;;;;;;;;;5035364;28;20144;-69
2023/11/19 09:52:42;;;;;;;53.47;7.72;;;;;;;;;;5034023;28;20083;-69
2023/11/19 09:55:08;;;;;;;41.97;7.38;;;;;;;;;;5034739;28;20021;-69
2023/11/19 09:57:35;;;;;;;38.30;6.78;;;;;;;;;;5034071;28;20674;-69
2023/11/19 10:00:01;;;;;;;41.22;8.30;;;;;;;;;;5032726;28;20051;-69
2023/11/19 10:02:27;;;;;;;64.38;8.75;;;;;;;;;;5034748;28;20101;-69
2023/11/19 10:04:53;;;;;;;33.90;7.28;;;;;;;;;;5033683;28;20437;-70
2023/11/19 10:07:18;;;;;;;51.70;10.40;;;;;;;;;;5033434;28;20074;-69
2023/11/19 10:09:44;;;;;;;37.97;7.38;;;;;;;;;;5034830;28;20029;-70
2023/11/19 10:12:09;;;;;;;51.40;8.13;;;;;;;;;;5034553;28;20080;-69
2023/11/19 10:14:37;;;;;;;32.05;7.13;;;;;;;;;;5034033;28;20028;-69
2023/11/19 10:17:04;;;;;;;33.05;7.35;;;;;;;;;;5042237;28;20021;-69
2023/11/19 10:19:29;;;;;;;51.28;7.85;;;;;;;;;;5054240;28;20048;-69
2023/11/19 10:21:54;;;;;;;38.72;7.05;;;;;;;;;;5053741;28;20052;-69
2023/11/19 10:24:40;;;;;;;37.35;7.28;;;;;;;;;;5054186;28;20106;-69
2023/11/19 10:27:09;;;;;;;48.53;6.45;;;;;;;;;;5053992;28;20540;-69
2023/11/19 10:29:40;;;;;;;46.55;7.47;;;;;;;;;;5054793;28;20033;-69
2023/11/19 10:32:05;;;;;;;30.33;7.47;;;;;;;;;;5054149;28;20028;-69
2023/11/19 10:34:31;;;;;;;45.20;6.57;;;;;;;;;;5053316;28;20029;-69
2023/11/19 10:36:56;;;;;;;37.60;6.35;;;;;;;;;;5053363;28;20051;-69
2023/11/19 10:39:23;;;;;;;42.03;6.13;;;;;;;;;;5054181;28;20473;-69
2023/11/19 10:41:49;;;;;;;40.47;8.05;;;;;;;;;;5054348;28;20024;-69
2023/11/19 10:44:33;;;;;;;41.95;6.68;;;;;;;;;;5054329;28;20074;-69
2023/11/19 10:46:59;;;;;;;39.97;7.13;;;;;;;;;;5052253;28;20017;-68
2023/11/19 10:49:24;;;;;;;33.70;7.85;;;;;;;;;;5054147;28;20086;-69
2023/11/19 10:51:51;;;;;;;44.83;6.82;;;;;;;;;;5053922;28;20029;-69
2023/11/19 10:54:18;;;;;;;34.83;7.00;;;;;;;;;;5051986;28;20079;-69
2023/11/19 10:56:44;;;;;;;50.45;8.35;;;;;;;;;;5053493;28;20047;-69
2023/11/19 10:59:11;;;;;;;58.50;7.25;;;;;;;;;;5053691;28;20438;-69
2023/11/19 11:01:46;;;;;;;42.03;7.80;;;;;;;;;;5053230;28;20028;-69
2023/11/19 11:04:20;;;;;;;38.90;7.72;;;;;;;;;;5052246;28;20060;-70
2023/11/19 11:06:46;;;;;;;34.22;6.88;;;;;;;;;;5052745;28;20032;-70
2023/11/19 11:09:12;;;;;;;49.67;9.10;;;;;;;;;;5052001;28;20024;-69
2023/11/19 11:11:39;;;;;;;50.70;7.88;;;;;;;;;;5051908;28;20067;-69
2023/11/19 11:14:05;;;;;;;35.72;7.13;;;;;;;;;;5052220;28;20029;-69
2023/11/19 11:16:31;;;;;;;49.42;8.45;;;;;;;;;;5052609;28;20079;-69
2023/11/19 11:18:57;;;;;;;47.45;9.18;;;;;;;;;;5052332;28;20029;-69
2023/11/19 11:21:24;;;;;;;50.95;7.63;;;;;;;;;;5035542;28;20020;-69
2023/11/19 11:24:01;;;;;;;31.65;7.63;;;;;;;;;;5051937;28;20028;-69
2023/11/19 11:27:01;;;;;;;35.92;6.70;;;;;;;;;;5053542;28;20059;-69
2023/11/19 11:29:37;;;;;;;40.95;5.90;;;;;;;;;;5080048;23;20053;-70
2023/11/19 11:32:17;;;;;;;40.65;8.88;;;;;;;;;;5089332;28;20107;-70
2023/11/19 11:34:54;;;;;;;34.88;6.25;;;;;;;;;;5089144;28;20583;-71
2023/11/19 11:38:00;;;;;;;54.65;8.52;;;;;;;;;;5088379;28;20036;-71
2023/11/19 11:40:26;;;;;;;47.40;8.90;;;;;;;;;;5052134;28;20124;-71
2023/11/19 11:42:52;;;;;;;48.60;8.20;;;;;;;;;;5053373;28;20124;-71
2023/11/19 11:45:20;;;;;;;48.42;7.18;;;;;;;;;;5051640;28;20020;-70
2023/11/19 11:47:54;;;;;;;38.42;6.75;;;;;;;;;;5053416;28;20067;-71
2023/11/19 11:50:19;;;;;;;51.85;7.70;;;;;;;;;;5053631;28;20543;-71
2023/11/19 11:53:00;;;;;;;59.55;8.60;;;;;;;;;;5052566;28;20033;-71
2023/11/19 11:55:52;;;;;;;46.08;6.32;;;;;;;;;;5053167;28;20436;-71
2023/11/19 11:58:20;;;;;;;40.15;8.00;;;;;;;;;;5053264;28;20059;-71
2023/11/19 12:00:47;;;;;;;41.25;7.60;;;;;;;;;;5051838;28;20035;-71
2023/11/19 12:03:12;;;;;;;38.15;7.95;;;;;;;;;;5052102;28;20474;-71
2023/11/19 12:05:43;;;;;;;35.70;6.90;;;;;;;;;;5052939;28;20108;-71
2023/11/19 12:08:11;;;;;;;48.63;7.50;;;;;;;;;;5052938;28;20048;-71
2023/11/19 12:10:44;;;;;;;45.78;9.48;;;;;;;;;;5052064;28;20031;-71
2023/11/19 12:13:11;;;;;;;50.80;8.32;;;;;;;;;;5052980;28;20025;-71
2023/11/19 12:15:55;;;;;;;43.40;7.68;;;;;;;;;;5052422;28;20052;-71
2023/11/19 12:18:23;;;;;;;50.60;7.97;;;;;;;;;;5053205;28;20020;-71
2023/11/19 12:20:48;;;;;;;46.63;8.07;;;;;;;;;;5052950;28;20562;-71
2023/11/19 12:23:14;;;;;;;47.10;8.38;;;;;;;;;;5056858;28;20028;-70
2023/11/19 12:25:39;;;;;;;37.63;7.22;;;;;;;;;;5055029;28;20028;-72
2023/11/19 12:28:05;;;;;;;38.38;6.30;;;;;;;;;;5056595;28;20407;-71
2023/11/19 12:30:31;;;;;;;36.97;7.18;;;;;;;;;;5056500;28;20029;-71
2023/11/19 12:32:56;;;;;;;43.50;7.32;;;;;;;;;;5054677;28;20446;-70
2023/11/19 12:35:23;;;;;;;37.90;6.55;;;;;;;;;;5056863;28;20470;-69
2023/11/19 12:37:49;;;;;;;37.17;8.13;;;;;;;;;;5056668;28;20021;-71
2023/11/19 12:40:25;;;;;;;35.28;5.70;;;;;;;;;;5056309;28;20397;-71
2023/11/19 12:42:55;;;;;;;33.17;6.78;;;;;;;;;;5055016;28;20382;-71
2023/11/19 12:45:21;;;;;;;42.63;8.43;;;;;;;;;;5056553;28;20535;-71
2023/11/19 12:47:48;;;;;;;31.70;7.65;;;;;;;;;;5055724;28;20021;-71
2023/11/19 12:50:14;;;;;;;48.15;6.90;;;;;;;;;;5054765;28;20141;-71
2023/11/19 12:52:39;;;;;;;51.20;7.15;;;;;;;;;;5054898;28;20439;-71
2023/11/19 12:55:09;;;;;;;40.08;6.43;;;;;;;;;;5055143;28;20100;-70
2023/11/19 12:57:41;;;;;;;43.30;7.78;;;;;;;;;;5056399;28;20477;-71
2023/11/19 13:00:09;;;;;;;39.08;5.90;;;;;;;;;;5054234;28;20033;-71
2023/11/19 13:02:48;;;;;;;41.00;7.13;;;;;;;;;;5054810;28;20017;-71
2023/11/19 13:05:26;;;;;;;44.63;6.32;;;;;;;;;;5055441;28;20025;-71
2023/11/19 13:07:51;;;;;;;38.72;7.13;;;;;;;;;;5055707;28;20036;-70
2023/11/19 13:10:17;;;;;;;40.30;5.20;;;;;;;;;;5055660;28;20025;-70
2023/11/19 13:12:42;;;;;;;40.60;6.38;;;;;;;;;;5054906;28;20020;-70
2023/11/19 13:15:23;;;;;;;33.22;5.15;;;;;;;;;;5055722;28;20423;-70
2023/11/19 13:17:48;;;;;;;28.15;5.28;;;;;;;;;;5055757;28;20033;-70
2023/11/19 13:20:16;;;;;;;61.80;7.53;;;;;;;;;;5055113;28;20459;-71
2023/11/19 13:23:00;;;;;;;41.63;7.63;;;;;;;;;;5055887;28;20405;-71
2023/11/19 13:25:28;;;;;;;;;;;;;;;;;;5055396;28;20135;-71
2023/11/19 13:27:54;;;;;;;36.30;5.93;;;;;;;;;;5055670;28;19909;-71
2023/11/19 13:30:22;;;;;;;29.40;5.03;;;;;;;;;;5048928;28;20432;-70
2023/11/19 13:32:47;;;;;;;38.95;7.72;;;;;;;;;;5048002;28;20032;-71
2023/11/19 13:35:13;;;;;;;41.88;8.95;;;;;;;;;;5052934;28;20029;-71
2023/11/19 13:37:39;;;;;;;33.85;5.78;;;;;;;;;;5050103;28;20138;-71
2023/11/19 13:40:05;;;;;;;32.38;5.53;;;;;;;;;;5048303;28;20033;-70
2023/11/19 13:42:30;;;;;;;37.13;5.70;;;;;;;;;;5042964;28;20041;-70
2023/11/19 13:44:56;;;;;;;31.95;8.57;;;;;;;;;;5045563;28;20029;-71
2023/11/19 13:47:21;;;;;;;35.60;7.00;;;;;;;;;;5048173;28;20367;-69
2023/11/19 13:49:46;;;;;;;49.33;8.73;;;;;;;;;;5050408;28;20037;-71
2023/11/19 13:52:12;;;;;;;50.53;8.75;;;;;;;;;;5048674;28;20021;-69
2023/11/19 13:54:37;;;;;;;38.85;6.63;;;;;;;;;;5047736;28;20060;-70
2023/11/19 13:57:03;;;;;;;45.70;7.70;;;;;;;;;;5061150;28;20027;-69
2023/11/19 13:59:29;;;;;;;44.55;7.45;;;;;;;;;;5034750;28;20049;-71
2023/11/19 14:01:57;;;;;;;48.08;7.70;;;;;;;;;;5048241;28;20389;-70
2023/11/19 14:04:22;;;;;;;45.65;8.38;;;;;;;;;;5062200;28;20032;-70
2023/11/19 14:06:47;;;;;;;60.17;9.18;;;;;;;;;;5054449;28;20021;-70
2023/11/19 14:09:13;;;;;;;34.20;6.85;;;;;;;;;;5054657;28;20033;-71
2023/11/19 14:11:38;;;;;;;36.88;6.32;;;;;;;;;;5040781;28;20044;-70
2023/11/19 14:14:03;;;;;;;46.63;6.35;;;;;;;;;;5053960;28;20021;-70
2023/11/19 14:16:29;;;;;;;46.63;7.50;;;;;;;;;;5034816;28;20017;-70
2023/11/19 14:18:54;;;;;;;47.95;7.72;;;;;;;;;;5045843;28;20031;-70
2023/11/19 14:21:20;;;;;;;33.88;5.88;;;;;;;;;;5069807;28;20104;-70
2023/11/19 14:23:45;;;;;;;41.55;6.57;;;;;;;;;;5053596;28;20028;-70
2023/11/19 14:26:10;;;;;;;34.00;5.88;;;;;;;;;;5069468;28;20381;-70
2023/11/19 14:28:36;;;;;;;41.78;6.38;;;;;;;;;;5041382;28;20033;-70
2023/11/19 14:31:01;;;;;;;38.80;7.47;;;;;;;;;;5053429;28;20025;-70